EWG17V EDDL-LIRQ
Flight info
| Callsign | EWG17V |
|---|---|
| Flight time | 1h 23m |
| Altitude | 37000 |
| Route | DODEN7Z DODEN Y852 NATOR DCT TRA DCT RIPUS DCT GERSA DCT SOSON DCT ODINA DCT SRN DCT ROBAS DCT OSBUL L153 BEROK |
| Aircraft | A320/M-SDE3FGHIRWY/LB1 |
Departure
| Time | 2026-05-08 06:45 |
|---|---|
| Airport | Düsseldorf Airport (EDDL) |
Arrival
| Time | 2026-05-08 08:08 |
|---|---|
| Airport | Florence Airport, Peretola (LIRQ) |
| Time | Latitude | Longitude | Altitude | Speed | Heading |
|---|---|---|---|---|---|
| 2026-05-08 06:04 | 51.28413 | 6.77233 | 130 ft | 0 kts | 142° |
| 2026-05-08 06:35 | 51.28416 | 6.77228 | 127 ft | 3 kts | 145° |
| 2026-05-08 06:36 | 51.28432 | 6.77219 | 128 ft | 2 kts | 143° |
| 2026-05-08 06:36 | 51.28449 | 6.77201 | 124 ft | 3 kts | 165° |
| 2026-05-08 06:36 | 51.28470 | 6.77203 | 125 ft | 3 kts | 218° |
| 2026-05-08 06:36 | 51.28486 | 6.77230 | 126 ft | 3 kts | 234° |
| 2026-05-08 06:37 | 51.28490 | 6.77238 | 127 ft | 0 kts | 233° |
| 2026-05-08 06:39 | 51.28487 | 6.77232 | 129 ft | 2 kts | 232° |
| 2026-05-08 06:39 | 51.28470 | 6.77197 | 125 ft | 6 kts | 232° |
| 2026-05-08 06:40 | 51.28439 | 6.77134 | 126 ft | 9 kts | 232° |
| 2026-05-08 06:40 | 51.28390 | 6.77033 | 123 ft | 14 kts | 233° |
| 2026-05-08 06:40 | 51.28355 | 6.76899 | 127 ft | 13 kts | 288° |
| 2026-05-08 06:40 | 51.28420 | 6.76808 | 122 ft | 13 kts | 323° |
| 2026-05-08 06:41 | 51.28450 | 6.76697 | 126 ft | 11 kts | 247° |
| 2026-05-08 06:41 | 51.28405 | 6.76600 | 123 ft | 10 kts | 232° |
| 2026-05-08 06:41 | 51.28365 | 6.76516 | 124 ft | 9 kts | 233° |
| 2026-05-08 06:41 | 51.28332 | 6.76445 | 124 ft | 7 kts | 232° |
| 2026-05-08 06:42 | 51.28297 | 6.76373 | 124 ft | 13 kts | 232° |
| 2026-05-08 06:42 | 51.28233 | 6.76240 | 127 ft | 14 kts | 232° |
| 2026-05-08 06:42 | 51.28179 | 6.76126 | 126 ft | 12 kts | 233° |
| 2026-05-08 06:42 | 51.28133 | 6.76030 | 127 ft | 10 kts | 232° |
| 2026-05-08 06:43 | 51.28089 | 6.75936 | 126 ft | 12 kts | 233° |
| 2026-05-08 06:43 | 51.28031 | 6.75815 | 126 ft | 15 kts | 231° |
| 2026-05-08 06:43 | 51.27964 | 6.75675 | 127 ft | 13 kts | 233° |
| 2026-05-08 06:43 | 51.27954 | 6.75563 | 128 ft | 10 kts | 307° |
| 2026-05-08 06:44 | 51.28012 | 6.75514 | 125 ft | 9 kts | 338° |
| 2026-05-08 06:44 | 51.28076 | 6.75502 | 127 ft | 9 kts | 9° |
| 2026-05-08 06:44 | 51.28121 | 6.75541 | 126 ft | 6 kts | 42° |
| 2026-05-08 06:44 | 51.28202 | 6.75707 | 127 ft | 50 kts | 53° |
| 2026-05-08 06:45 | 51.28552 | 6.76441 | 126 ft | 115 kts | 52° |
| 2026-05-08 06:45 | 51.29150 | 6.77703 | 215 ft | 159 kts | 53° |
| 2026-05-08 06:45 | 51.29822 | 6.79150 | 822 ft | 165 kts | 53° |
| 2026-05-08 06:45 | 51.30525 | 6.80649 | 1504 ft | 171 kts | 54° |
| 2026-05-08 06:46 | 51.31200 | 6.82275 | 2057 ft | 181 kts | 70° |
| 2026-05-08 06:46 | 51.31295 | 6.84297 | 2584 ft | 190 kts | 104° |
| 2026-05-08 06:46 | 51.30596 | 6.86129 | 3034 ft | 202 kts | 135° |
| 2026-05-08 06:46 | 51.29520 | 6.87765 | 3458 ft | 225 kts | 137° |
| 2026-05-08 06:47 | 51.28318 | 6.89536 | 3925 ft | 246 kts | 137° |
| 2026-05-08 06:47 | 51.27032 | 6.91483 | 4508 ft | 263 kts | 135° |
| 2026-05-08 06:47 | 51.25752 | 6.93624 | 5347 ft | 270 kts | 133° |
| 2026-05-08 06:47 | 51.24478 | 6.95867 | 6268 ft | 274 kts | 131° |
| 2026-05-08 06:48 | 51.23207 | 6.98156 | 7148 ft | 277 kts | 131° |
| 2026-05-08 06:48 | 51.21928 | 7.00480 | 8036 ft | 279 kts | 131° |
| 2026-05-08 06:48 | 51.20641 | 7.02818 | 8944 ft | 281 kts | 132° |
| 2026-05-08 06:48 | 51.19343 | 7.05175 | 9835 ft | 284 kts | 132° |
| 2026-05-08 06:49 | 51.18024 | 7.07561 | 10509 ft | 294 kts | 132° |
| 2026-05-08 06:49 | 51.16596 | 7.10130 | 10771 ft | 318 kts | 132° |
| 2026-05-08 06:49 | 51.15074 | 7.12863 | 11019 ft | 340 kts | 132° |
| 2026-05-08 06:49 | 51.13480 | 7.15720 | 11573 ft | 349 kts | 132° |
| 2026-05-08 06:50 | 51.11855 | 7.18625 | 12253 ft | 354 kts | 133° |
| 2026-05-08 06:50 | 51.10202 | 7.21578 | 12952 ft | 359 kts | 133° |
| 2026-05-08 06:50 | 51.08532 | 7.24563 | 13657 ft | 364 kts | 132° |
| 2026-05-08 06:50 | 51.06836 | 7.27585 | 14304 ft | 368 kts | 133° |
| 2026-05-08 06:51 | 51.05121 | 7.30636 | 14927 ft | 372 kts | 133° |
| 2026-05-08 06:51 | 51.03388 | 7.33716 | 15547 ft | 376 kts | 133° |
| 2026-05-08 06:51 | 51.01636 | 7.36827 | 16168 ft | 380 kts | 133° |
| 2026-05-08 06:51 | 50.99865 | 7.39968 | 16771 ft | 384 kts | 133° |
| 2026-05-08 06:52 | 50.98074 | 7.43141 | 17372 ft | 388 kts | 133° |
| 2026-05-08 06:52 | 50.96270 | 7.46337 | 17955 ft | 392 kts | 133° |
| 2026-05-08 06:52 | 50.94441 | 7.49574 | 18512 ft | 396 kts | 133° |
| 2026-05-08 06:52 | 50.92570 | 7.52885 | 19023 ft | 399 kts | 133° |
| 2026-05-08 06:53 | 50.90711 | 7.56165 | 19529 ft | 402 kts | 133° |
| 2026-05-08 06:53 | 50.88835 | 7.59471 | 20037 ft | 405 kts | 133° |
| 2026-05-08 06:53 | 50.86944 | 7.62796 | 20560 ft | 408 kts | 133° |
| 2026-05-08 06:53 | 50.85043 | 7.66134 | 21056 ft | 410 kts | 133° |
| 2026-05-08 06:54 | 50.83117 | 7.69509 | 21541 ft | 413 kts | 134° |
| 2026-05-08 06:54 | 50.81187 | 7.72886 | 22022 ft | 416 kts | 134° |
| 2026-05-08 06:54 | 50.79233 | 7.76299 | 22497 ft | 419 kts | 134° |
| 2026-05-08 06:54 | 50.77273 | 7.79722 | 22962 ft | 422 kts | 134° |
| 2026-05-08 06:55 | 50.75293 | 7.83175 | 23415 ft | 425 kts | 134° |
| 2026-05-08 06:55 | 50.73300 | 7.86641 | 23844 ft | 428 kts | 134° |
| 2026-05-08 06:55 | 50.71290 | 7.90134 | 24221 ft | 431 kts | 134° |
| 2026-05-08 06:55 | 50.69271 | 7.93643 | 24598 ft | 433 kts | 134° |
| 2026-05-08 06:56 | 50.67243 | 7.97168 | 24972 ft | 435 kts | 134° |
| 2026-05-08 06:56 | 50.65208 | 8.00701 | 25346 ft | 438 kts | 134° |
| 2026-05-08 06:56 | 50.63016 | 8.04040 | 25688 ft | 438 kts | 143° |
| 2026-05-08 06:56 | 50.60512 | 8.06736 | 26043 ft | 437 kts | 153° |
| 2026-05-08 06:57 | 50.57747 | 8.08710 | 26407 ft | 437 kts | 163° |
| 2026-05-08 06:57 | 50.54770 | 8.09932 | 26763 ft | 436 kts | 173° |
| 2026-05-08 06:57 | 50.51754 | 8.10436 | 27113 ft | 436 kts | 178° |
| 2026-05-08 06:57 | 50.48718 | 8.10829 | 27459 ft | 438 kts | 178° |
| 2026-05-08 06:58 | 50.45675 | 8.11224 | 27806 ft | 440 kts | 178° |
| 2026-05-08 06:58 | 50.42610 | 8.11624 | 28141 ft | 442 kts | 178° |
| 2026-05-08 06:58 | 50.39580 | 8.12019 | 28462 ft | 444 kts | 178° |
| 2026-05-08 06:58 | 50.36452 | 8.12428 | 28775 ft | 446 kts | 178° |
| 2026-05-08 06:59 | 50.33394 | 8.12827 | 29077 ft | 448 kts | 178° |
| 2026-05-08 06:59 | 50.30274 | 8.13233 | 29383 ft | 450 kts | 178° |
| 2026-05-08 06:59 | 50.27149 | 8.13639 | 29679 ft | 452 kts | 178° |
| 2026-05-08 06:59 | 50.24009 | 8.14051 | 30044 ft | 452 kts | 178° |
| 2026-05-08 07:00 | 50.21892 | 8.14328 | 30303 ft | 452 kts | 178° |
| 2026-05-08 07:00 | 50.18768 | 8.14737 | 30674 ft | 450 kts | 178° |
| 2026-05-08 07:00 | 50.15646 | 8.15141 | 31023 ft | 450 kts | 178° |
| 2026-05-08 07:00 | 50.12532 | 8.15545 | 31377 ft | 449 kts | 178° |
| 2026-05-08 07:01 | 50.09433 | 8.15961 | 31728 ft | 448 kts | 178° |
| 2026-05-08 07:01 | 50.06321 | 8.16394 | 32079 ft | 447 kts | 178° |
| 2026-05-08 07:01 | 50.03227 | 8.16834 | 32425 ft | 447 kts | 178° |
| 2026-05-08 07:01 | 50.00137 | 8.17275 | 32773 ft | 446 kts | 178° |
| 2026-05-08 07:02 | 49.97004 | 8.17717 | 33137 ft | 445 kts | 178° |
| 2026-05-08 07:02 | 49.93968 | 8.18139 | 33483 ft | 444 kts | 178° |
| 2026-05-08 07:02 | 49.90847 | 8.18571 | 33848 ft | 443 kts | 178° |
| 2026-05-08 07:02 | 49.87789 | 8.18992 | 34188 ft | 442 kts | 178° |
| 2026-05-08 07:03 | 49.84724 | 8.19415 | 34478 ft | 442 kts | 178° |
| 2026-05-08 07:03 | 49.81658 | 8.19839 | 34758 ft | 441 kts | 178° |
| 2026-05-08 07:03 | 49.78600 | 8.20263 | 35030 ft | 441 kts | 178° |
| 2026-05-08 07:03 | 49.75546 | 8.20686 | 35292 ft | 441 kts | 178° |
| 2026-05-08 07:04 | 49.72498 | 8.21107 | 35542 ft | 440 kts | 178° |
| 2026-05-08 07:04 | 49.69448 | 8.21528 | 35788 ft | 440 kts | 178° |
| 2026-05-08 07:04 | 49.66398 | 8.21946 | 36032 ft | 440 kts | 178° |
| 2026-05-08 07:04 | 49.63308 | 8.22365 | 36273 ft | 440 kts | 178° |
| 2026-05-08 07:05 | 49.60263 | 8.22779 | 36503 ft | 439 kts | 178° |
| 2026-05-08 07:05 | 49.57220 | 8.23196 | 36730 ft | 439 kts | 178° |
| 2026-05-08 07:05 | 49.54174 | 8.23615 | 36960 ft | 439 kts | 178° |
| 2026-05-08 07:05 | 49.51134 | 8.24032 | 37107 ft | 439 kts | 178° |
| 2026-05-08 07:06 | 49.45038 | 8.24869 | 37129 ft | 440 kts | 178° |
| 2026-05-08 07:06 | 49.38896 | 8.25703 | 37130 ft | 440 kts | 178° |
| 2026-05-08 07:07 | 49.32789 | 8.26519 | 37125 ft | 440 kts | 178° |
| 2026-05-08 07:07 | 49.26691 | 8.27340 | 37120 ft | 439 kts | 178° |
| 2026-05-08 07:08 | 49.20602 | 8.28164 | 37107 ft | 439 kts | 178° |
| 2026-05-08 07:08 | 49.14516 | 8.28984 | 37097 ft | 439 kts | 178° |
| 2026-05-08 07:09 | 49.08419 | 8.29807 | 37093 ft | 439 kts | 178° |
| 2026-05-08 07:09 | 49.02332 | 8.30616 | 37091 ft | 439 kts | 178° |
| 2026-05-08 07:10 | 48.96250 | 8.31295 | 37089 ft | 437 kts | 181° |
| 2026-05-08 07:10 | 48.90139 | 8.31393 | 37089 ft | 436 kts | 183° |
| 2026-05-08 07:11 | 48.84022 | 8.31302 | 37091 ft | 436 kts | 183° |
| 2026-05-08 07:11 | 48.77912 | 8.31307 | 37087 ft | 436 kts | 182° |
| 2026-05-08 07:12 | 48.71845 | 8.31397 | 37083 ft | 436 kts | 182° |
| 2026-05-08 07:12 | 48.65732 | 8.31501 | 37079 ft | 436 kts | 182° |
| 2026-05-08 07:13 | 48.59669 | 8.31591 | 37078 ft | 436 kts | 182° |
| 2026-05-08 07:13 | 48.53607 | 8.31660 | 37073 ft | 436 kts | 182° |
| 2026-05-08 07:14 | 48.47537 | 8.31729 | 37070 ft | 436 kts | 182° |
| 2026-05-08 07:14 | 48.41475 | 8.31804 | 37069 ft | 436 kts | 182° |
| 2026-05-08 07:15 | 48.35402 | 8.31885 | 37074 ft | 436 kts | 182° |
| 2026-05-08 07:15 | 48.29337 | 8.31964 | 37071 ft | 436 kts | 182° |
| 2026-05-08 07:16 | 48.23268 | 8.32225 | 37068 ft | 437 kts | 177° |
| 2026-05-08 07:16 | 48.17204 | 8.33170 | 37065 ft | 438 kts | 176° |
| 2026-05-08 07:17 | 48.11193 | 8.34229 | 37063 ft | 438 kts | 176° |
| 2026-05-08 07:19 | 48.10131 | 8.34412 | 37061 ft | 438 kts | 176° |
| 2026-05-08 07:19 | 48.04067 | 8.35448 | 37061 ft | 438 kts | 176° |
| 2026-05-08 07:20 | 47.97998 | 8.36459 | 37060 ft | 439 kts | 176° |
| 2026-05-08 07:20 | 47.91934 | 8.37464 | 37064 ft | 439 kts | 176° |
| 2026-05-08 07:21 | 47.86232 | 8.38405 | 37063 ft | 439 kts | 176° |
| 2026-05-08 07:21 | 47.80161 | 8.39399 | 37064 ft | 439 kts | 176° |
| 2026-05-08 07:22 | 47.74094 | 8.40403 | 37064 ft | 439 kts | 176° |
| 2026-05-08 07:22 | 47.68011 | 8.41411 | 37076 ft | 439 kts | 176° |
| 2026-05-08 07:23 | 47.61938 | 8.42413 | 37077 ft | 439 kts | 176° |
| 2026-05-08 07:23 | 47.55871 | 8.43400 | 37083 ft | 439 kts | 177° |
| 2026-05-08 07:24 | 47.49803 | 8.44376 | 37080 ft | 439 kts | 177° |
| 2026-05-08 07:24 | 47.43730 | 8.45362 | 37082 ft | 439 kts | 177° |
| 2026-05-08 07:25 | 47.37668 | 8.46334 | 37075 ft | 438 kts | 177° |
| 2026-05-08 07:26 | 47.28570 | 8.47818 | 37075 ft | 438 kts | 177° |
| 2026-05-08 07:26 | 47.22511 | 8.48808 | 37075 ft | 438 kts | 177° |
| 2026-05-08 07:27 | 47.17478 | 8.49615 | 37076 ft | 438 kts | 177° |
| 2026-05-08 07:27 | 47.11424 | 8.50584 | 37082 ft | 438 kts | 177° |
| 2026-05-08 07:28 | 47.05371 | 8.51553 | 37075 ft | 437 kts | 177° |
| 2026-05-08 07:28 | 46.99322 | 8.52512 | 37082 ft | 437 kts | 177° |
| 2026-05-08 07:29 | 46.93275 | 8.53474 | 37078 ft | 437 kts | 177° |
| 2026-05-08 07:29 | 46.87231 | 8.54441 | 37069 ft | 436 kts | 177° |
| 2026-05-08 07:30 | 46.81191 | 8.55411 | 37077 ft | 437 kts | 177° |
| 2026-05-08 07:30 | 46.75144 | 8.56370 | 37071 ft | 437 kts | 177° |
| 2026-05-08 07:31 | 46.69099 | 8.57325 | 37084 ft | 437 kts | 178° |
| 2026-05-08 07:31 | 46.63066 | 8.58279 | 37086 ft | 437 kts | 178° |
| 2026-05-08 07:32 | 46.57025 | 8.59228 | 37092 ft | 436 kts | 178° |
| 2026-05-08 07:32 | 46.50952 | 8.60183 | 37089 ft | 436 kts | 178° |
| 2026-05-08 07:33 | 46.44919 | 8.61131 | 37088 ft | 436 kts | 178° |
| 2026-05-08 07:33 | 46.38882 | 8.62067 | 37085 ft | 436 kts | 178° |
| 2026-05-08 07:34 | 46.32847 | 8.63003 | 37089 ft | 436 kts | 178° |
| 2026-05-08 07:34 | 46.26820 | 8.63942 | 37079 ft | 434 kts | 178° |
| 2026-05-08 07:35 | 46.20815 | 8.64874 | 37082 ft | 435 kts | 178° |
| 2026-05-08 07:35 | 46.14790 | 8.65808 | 37089 ft | 435 kts | 178° |
| 2026-05-08 07:36 | 46.08836 | 8.67863 | 37095 ft | 443 kts | 161° |
| 2026-05-08 07:36 | 46.03352 | 8.72046 | 37082 ft | 447 kts | 156° |
| 2026-05-08 07:37 | 45.97891 | 8.76324 | 37082 ft | 447 kts | 156° |
| 2026-05-08 07:37 | 45.92789 | 8.80301 | 37076 ft | 447 kts | 156° |
| 2026-05-08 07:38 | 45.87329 | 8.84556 | 37078 ft | 447 kts | 156° |
| 2026-05-08 07:38 | 45.81860 | 8.88804 | 37076 ft | 447 kts | 156° |
| 2026-05-08 07:39 | 45.76388 | 8.93043 | 37075 ft | 447 kts | 156° |
| 2026-05-08 07:39 | 45.70927 | 8.97266 | 37072 ft | 446 kts | 156° |
| 2026-05-08 07:40 | 45.65520 | 9.01675 | 37073 ft | 451 kts | 149° |
| 2026-05-08 07:40 | 45.60935 | 9.07903 | 37068 ft | 459 kts | 136° |
| 2026-05-08 07:41 | 45.56631 | 9.14716 | 37069 ft | 459 kts | 136° |
| 2026-05-08 07:41 | 45.52339 | 9.21453 | 37074 ft | 459 kts | 137° |
| 2026-05-08 07:42 | 45.48027 | 9.28173 | 37077 ft | 459 kts | 137° |
| 2026-05-08 07:42 | 45.43716 | 9.34890 | 37076 ft | 459 kts | 137° |
| 2026-05-08 07:43 | 45.39435 | 9.41560 | 37080 ft | 460 kts | 137° |
| 2026-05-08 07:43 | 45.35114 | 9.48274 | 37071 ft | 460 kts | 137° |
| 2026-05-08 07:44 | 45.30794 | 9.54977 | 37066 ft | 460 kts | 137° |
| 2026-05-08 07:44 | 45.26436 | 9.61709 | 37044 ft | 460 kts | 137° |
| 2026-05-08 07:45 | 45.22106 | 9.68380 | 37060 ft | 460 kts | 137° |
| 2026-05-08 07:45 | 45.17769 | 9.75052 | 37060 ft | 460 kts | 137° |
| 2026-05-08 07:46 | 45.13439 | 9.81722 | 37064 ft | 460 kts | 137° |
| 2026-05-08 07:46 | 45.09100 | 9.88375 | 37061 ft | 460 kts | 137° |
| 2026-05-08 07:47 | 45.04766 | 9.95022 | 37065 ft | 459 kts | 137° |
| 2026-05-08 07:47 | 45.00435 | 10.01661 | 36805 ft | 459 kts | 138° |
| 2026-05-08 07:47 | 44.98277 | 10.04967 | 36557 ft | 457 kts | 138° |
| 2026-05-08 07:48 | 44.96124 | 10.08253 | 36246 ft | 455 kts | 138° |
| 2026-05-08 07:48 | 44.93960 | 10.11543 | 35388 ft | 459 kts | 139° |
| 2026-05-08 07:48 | 44.91790 | 10.14839 | 34678 ft | 458 kts | 139° |
| 2026-05-08 07:48 | 44.89616 | 10.18136 | 33952 ft | 457 kts | 140° |
| 2026-05-08 07:49 | 44.87457 | 10.21401 | 33120 ft | 456 kts | 139° |
| 2026-05-08 07:49 | 44.85250 | 10.24731 | 32144 ft | 458 kts | 139° |
| 2026-05-08 07:49 | 44.82930 | 10.27788 | 31152 ft | 456 kts | 146° |
| 2026-05-08 07:49 | 44.80320 | 10.30297 | 30111 ft | 455 kts | 154° |
| 2026-05-08 07:50 | 44.77473 | 10.32225 | 29035 ft | 454 kts | 160° |
| 2026-05-08 07:50 | 44.74534 | 10.34001 | 28149 ft | 452 kts | 159° |
| 2026-05-08 07:50 | 44.71669 | 10.35751 | 27483 ft | 446 kts | 159° |
| 2026-05-08 07:50 | 44.68796 | 10.37510 | 26790 ft | 441 kts | 159° |
| 2026-05-08 07:51 | 44.65997 | 10.39220 | 26127 ft | 437 kts | 159° |
| 2026-05-08 07:51 | 44.63218 | 10.40913 | 25471 ft | 434 kts | 159° |
| 2026-05-08 07:51 | 44.60457 | 10.42586 | 24821 ft | 431 kts | 158° |
| 2026-05-08 07:51 | 44.57716 | 10.44245 | 24168 ft | 429 kts | 158° |
| 2026-05-08 07:52 | 44.54980 | 10.45901 | 23502 ft | 427 kts | 158° |
| 2026-05-08 07:52 | 44.52265 | 10.47542 | 22841 ft | 423 kts | 158° |
| 2026-05-08 07:52 | 44.49578 | 10.49165 | 22259 ft | 418 kts | 158° |
| 2026-05-08 07:52 | 44.46924 | 10.50763 | 21711 ft | 413 kts | 158° |
| 2026-05-08 07:53 | 44.44305 | 10.52341 | 21176 ft | 407 kts | 158° |
| 2026-05-08 07:53 | 44.41718 | 10.53900 | 20677 ft | 402 kts | 158° |
| 2026-05-08 07:53 | 44.39163 | 10.55437 | 20169 ft | 397 kts | 158° |
| 2026-05-08 07:53 | 44.36642 | 10.56952 | 19687 ft | 392 kts | 158° |
| 2026-05-08 07:54 | 44.34119 | 10.58467 | 19190 ft | 387 kts | 158° |
| 2026-05-08 07:54 | 44.31657 | 10.59943 | 18714 ft | 384 kts | 158° |
| 2026-05-08 07:54 | 44.29214 | 10.61407 | 18204 ft | 381 kts | 158° |
| 2026-05-08 07:54 | 44.26793 | 10.62855 | 17677 ft | 377 kts | 158° |
| 2026-05-08 07:55 | 44.24389 | 10.64289 | 17181 ft | 373 kts | 158° |
| 2026-05-08 07:55 | 44.22012 | 10.65709 | 16668 ft | 370 kts | 158° |
| 2026-05-08 07:55 | 44.19657 | 10.67119 | 16173 ft | 367 kts | 157° |
| 2026-05-08 07:55 | 44.17311 | 10.68525 | 15649 ft | 366 kts | 157° |
| 2026-05-08 07:56 | 44.15765 | 10.69450 | 15302 ft | 365 kts | 157° |
| 2026-05-08 07:56 | 44.13429 | 10.70842 | 14776 ft | 364 kts | 157° |
| 2026-05-08 07:56 | 44.11102 | 10.72227 | 14245 ft | 364 kts | 156° |
| 2026-05-08 07:56 | 44.08776 | 10.73612 | 13706 ft | 363 kts | 156° |
| 2026-05-08 07:57 | 44.06458 | 10.74986 | 13134 ft | 362 kts | 156° |
| 2026-05-08 07:57 | 44.04157 | 10.76350 | 12797 ft | 353 kts | 156° |
| 2026-05-08 07:57 | 44.01939 | 10.77663 | 12676 ft | 340 kts | 156° |
| 2026-05-08 07:57 | 43.99803 | 10.78927 | 12539 ft | 328 kts | 156° |
| 2026-05-08 07:58 | 43.97742 | 10.80149 | 12406 ft | 317 kts | 156° |
| 2026-05-08 07:58 | 43.95745 | 10.81332 | 12264 ft | 307 kts | 156° |
| 2026-05-08 07:58 | 43.93811 | 10.82478 | 12138 ft | 298 kts | 156° |
| 2026-05-08 07:58 | 43.91936 | 10.83590 | 12010 ft | 289 kts | 156° |
| 2026-05-08 07:59 | 43.90106 | 10.84639 | 11866 ft | 281 kts | 161° |
| 2026-05-08 07:59 | 43.88207 | 10.85123 | 11706 ft | 277 kts | 177° |
| 2026-05-08 07:59 | 43.86275 | 10.84885 | 11294 ft | 281 kts | 191° |
| 2026-05-08 07:59 | 43.84334 | 10.84369 | 10994 ft | 280 kts | 190° |
| 2026-05-08 08:00 | 43.82385 | 10.83851 | 10682 ft | 279 kts | 190° |
| 2026-05-08 08:00 | 43.80485 | 10.83348 | 10416 ft | 278 kts | 190° |
| 2026-05-08 08:00 | 43.78587 | 10.82851 | 10136 ft | 277 kts | 190° |
| 2026-05-08 08:00 | 43.76696 | 10.82359 | 9844 ft | 276 kts | 189° |
| 2026-05-08 08:01 | 43.74780 | 10.81866 | 9519 ft | 275 kts | 189° |
| 2026-05-08 08:01 | 43.72905 | 10.81385 | 9205 ft | 274 kts | 189° |
| 2026-05-08 08:01 | 43.71028 | 10.80898 | 8732 ft | 277 kts | 189° |
| 2026-05-08 08:01 | 43.69071 | 10.80654 | 8005 ft | 288 kts | 171° |
| 2026-05-08 08:02 | 43.67196 | 10.81508 | 7552 ft | 285 kts | 148° |
| 2026-05-08 08:02 | 43.65630 | 10.83249 | 6862 ft | 294 kts | 136° |
| 2026-05-08 08:02 | 43.64071 | 10.85191 | 6225 ft | 301 kts | 136° |
| 2026-05-08 08:02 | 43.62514 | 10.87172 | 5841 ft | 295 kts | 131° |
| 2026-05-08 08:03 | 43.61562 | 10.89550 | 5769 ft | 280 kts | 101° |
| 2026-05-08 08:03 | 43.61682 | 10.92168 | 5476 ft | 276 kts | 69° |
| 2026-05-08 08:03 | 43.62729 | 10.94341 | 5136 ft | 272 kts | 49° |
| 2026-05-08 08:03 | 43.64084 | 10.96080 | 4976 ft | 263 kts | 43° |
| 2026-05-08 08:04 | 43.65419 | 10.97624 | 4943 ft | 238 kts | 43° |
| 2026-05-08 08:04 | 43.66655 | 10.99118 | 4340 ft | 236 kts | 45° |
| 2026-05-08 08:04 | 43.67874 | 11.00624 | 3836 ft | 234 kts | 43° |
| 2026-05-08 08:04 | 43.69043 | 11.02135 | 3460 ft | 227 kts | 48° |
| 2026-05-08 08:05 | 43.70098 | 11.03704 | 3174 ft | 219 kts | 49° |
| 2026-05-08 08:05 | 43.71116 | 11.05270 | 2877 ft | 218 kts | 49° |
| 2026-05-08 08:05 | 43.72117 | 11.06810 | 2601 ft | 213 kts | 47° |
| 2026-05-08 08:05 | 43.73108 | 11.08334 | 2308 ft | 207 kts | 47° |
| 2026-05-08 08:06 | 43.74051 | 11.09785 | 1828 ft | 196 kts | 47° |
| 2026-05-08 08:06 | 43.74906 | 11.11115 | 1632 ft | 173 kts | 47° |
| 2026-05-08 08:06 | 43.75669 | 11.12277 | 1497 ft | 154 kts | 47° |
| 2026-05-08 08:06 | 43.76353 | 11.13322 | 1509 ft | 144 kts | 47° |
| 2026-05-08 08:07 | 43.77010 | 11.14323 | 1279 ft | 139 kts | 47° |
| 2026-05-08 08:07 | 43.77652 | 11.15304 | 1082 ft | 137 kts | 46° |
| 2026-05-08 08:07 | 43.78301 | 11.16280 | 811 ft | 138 kts | 48° |
| 2026-05-08 08:07 | 43.78921 | 11.17285 | 617 ft | 137 kts | 49° |
| 2026-05-08 08:08 | 43.79541 | 11.18251 | 458 ft | 136 kts | 47° |
| 2026-05-08 08:08 | 43.80171 | 11.19221 | 264 ft | 135 kts | 47° |
| 2026-05-08 08:08 | 43.80789 | 11.20166 | 144 ft | 123 kts | 47° |
| 2026-05-08 08:08 | 43.81180 | 11.20780 | 141 ft | 49 kts | 49° |
| 2026-05-08 08:09 | 43.81327 | 11.21009 | 147 ft | 23 kts | 46° |
| 2026-05-08 08:09 | 43.81425 | 11.21160 | 149 ft | 19 kts | 50° |
| 2026-05-08 08:09 | 43.81464 | 11.21226 | 148 ft | 6 kts | 51° |